createdAt,value
2017-04-12T00:00:08.835Z,74.60
2017-04-12T00:01:07.462Z,74.60
2017-04-12T00:02:06.432Z,75.30
2017-04-12T00:03:05.352Z,75.70
2017-04-12T00:04:03.963Z,75.70
2017-04-12T00:05:02.901Z,76.40
2017-04-12T00:06:01.868Z,76.30
2017-04-12T00:07:00.419Z,76.30
2017-04-12T00:07:59.369Z,76.10
2017-04-12T00:08:58.429Z,76.10
2017-04-12T00:09:56.983Z,76.10
2017-04-12T00:10:56.026Z,75.10
2017-04-12T00:11:55.004Z,75.40
2017-04-12T00:12:54.061Z,76.00
2017-04-12T00:13:52.993Z,75.90
2017-04-12T00:14:52.000Z,75.70
2017-04-12T00:15:51.033Z,75.80
2017-04-12T00:16:50.066Z,75.90
2017-04-12T00:17:49.086Z,75.60
2017-04-12T00:18:48.244Z,75.70
2017-04-12T00:19:47.594Z,75.80
2017-04-12T00:20:46.588Z,75.80
2017-04-12T00:21:46.034Z,75.90
2017-04-12T00:22:45.028Z,76.20
2017-04-12T00:23:44.062Z,75.70
2017-04-12T00:24:43.141Z,75.90
2017-04-12T00:25:42.092Z,75.90
2017-04-12T00:26:41.170Z,76.50
2017-04-12T00:27:40.479Z,76.30
2017-04-12T00:28:39.434Z,76.20
2017-04-12T00:29:38.458Z,76.10
2017-04-12T00:30:37.395Z,76.10
2017-04-12T00:31:36.359Z,75.50
2017-04-12T00:32:35.440Z,75.60
2017-04-12T00:33:34.365Z,75.40
2017-04-12T00:34:33.420Z,75.50
2017-04-12T00:35:32.385Z,75.60
2017-04-12T00:36:31.362Z,75.50
2017-04-12T00:37:30.371Z,75.70
2017-04-12T00:38:29.378Z,76.20
2017-04-12T00:39:27.952Z,76.20
2017-04-12T00:40:26.921Z,76.20
2017-04-12T00:41:25.852Z,76.00
2017-04-12T00:42:24.815Z,75.80
2017-04-12T00:43:23.744Z,76.00
2017-04-12T00:44:22.739Z,75.80
2017-04-12T00:45:21.640Z,75.60
2017-04-12T00:46:20.684Z,75.50
2017-04-12T00:47:19.656Z,75.70
2017-04-12T00:48:18.620Z,76.10
2017-04-12T00:49:17.572Z,75.90
2017-04-12T00:50:16.554Z,75.80
2017-04-12T00:51:15.578Z,76.20
2017-04-12T00:52:14.536Z,76.30
2017-04-12T00:53:13.483Z,76.60
2017-04-12T00:54:12.455Z,76.40
2017-04-12T00:55:11.415Z,76.20
2017-04-12T00:56:10.419Z,76.10
2017-04-12T00:57:09.400Z,76.10
2017-04-12T00:58:08.385Z,76.30
2017-04-12T00:59:07.345Z,76.10
2017-04-12T01:00:06.290Z,76.20
2017-04-12T01:01:05.281Z,76.30
2017-04-12T01:02:04.395Z,76.50
2017-04-12T01:03:03.266Z,76.40
2017-04-12T01:04:02.240Z,76.10
2017-04-12T01:05:01.299Z,76.40
2017-04-12T01:06:00.256Z,76.70
2017-04-12T01:06:59.221Z,77.30
2017-04-12T01:07:58.276Z,76.70
2017-04-12T01:08:57.349Z,76.60
2017-04-12T01:09:56.380Z,77.60
2017-04-12T01:10:55.375Z,76.90
2017-04-12T01:11:54.358Z,77.00
2017-04-12T01:12:53.349Z,77.30
2017-04-12T01:13:52.352Z,76.90
2017-04-12T01:14:51.319Z,76.90
2017-04-12T01:15:50.243Z,76.70
2017-04-12T01:16:48.824Z,76.70
2017-04-12T01:17:47.780Z,76.70
2017-04-12T01:18:46.776Z,76.40
2017-04-12T01:19:45.417Z,76.40
2017-04-12T01:20:44.385Z,76.60
2017-04-12T01:21:44.075Z,76.40
2017-04-12T01:22:43.096Z,76.70
2017-04-12T01:23:42.097Z,76.80
2017-04-12T01:24:41.052Z,76.80
2017-04-12T01:25:39.981Z,77.10
2017-04-12T01:26:38.956Z,77.20
2017-04-12T01:27:37.892Z,77.50
2017-04-12T01:28:36.947Z,76.90
2017-04-12T01:29:35.956Z,76.50
2017-04-12T01:30:34.569Z,76.50
2017-04-12T01:31:33.560Z,76.70
2017-04-12T01:32:32.527Z,76.70
2017-04-12T01:33:31.592Z,76.70
2017-04-12T01:34:30.568Z,76.60
2017-04-12T01:35:29.564Z,77.00
2017-04-12T01:36:28.547Z,77.00
2017-04-12T01:37:27.600Z,77.20
2017-04-12T01:38:26.599Z,76.80
2017-04-12T01:39:25.608Z,76.70
2017-04-12T01:40:24.570Z,76.50
2017-04-12T01:41:23.581Z,76.50
2017-04-12T01:42:22.606Z,76.50
2017-04-12T01:43:21.631Z,76.50
2017-04-12T01:44:20.188Z,76.60
2017-04-12T01:45:19.147Z,75.90
2017-04-12T01:46:18.151Z,76.10
2017-04-12T01:47:17.209Z,76.30
2017-04-12T01:48:16.160Z,76.60
2017-04-12T01:49:15.135Z,76.80
2017-04-12T01:50:14.135Z,76.80
2017-04-12T01:51:13.109Z,77.00
2017-04-12T01:52:12.019Z,76.90
2017-04-12T01:53:10.951Z,76.90
2017-04-12T01:54:09.923Z,76.90
2017-04-12T01:55:08.902Z,76.80
2017-04-12T01:56:07.888Z,76.80
2017-04-12T01:57:06.842Z,76.60
2017-04-12T01:58:05.764Z,76.50
2017-04-12T01:59:04.821Z,76.50
2017-04-12T02:00:03.790Z,76.80
2017-04-12T02:01:02.843Z,77.20
2017-04-12T02:02:01.767Z,77.00
2017-04-12T02:03:00.759Z,76.50
2017-04-12T02:03:59.717Z,76.50
2017-04-12T02:04:58.747Z,76.50
2017-04-12T02:05:57.715Z,76.60
2017-04-12T02:06:56.771Z,76.80
2017-04-12T02:07:55.755Z,76.80
2017-04-12T02:08:55.119Z,76.60
2017-04-12T02:09:54.055Z,76.60
2017-04-12T02:10:53.012Z,76.90
2017-04-12T02:11:52.074Z,77.10
2017-04-12T02:12:51.048Z,76.50
2017-04-12T02:13:50.055Z,76.10
2017-04-12T02:14:49.024Z,76.10
2017-04-12T02:15:48.020Z,76.20
2017-04-12T02:16:47.060Z,76.20
2017-04-12T02:17:45.999Z,76.00
2017-04-12T02:18:45.000Z,75.80
2017-04-12T02:19:43.940Z,76.40
2017-04-12T02:20:42.903Z,77.10
2017-04-12T02:21:41.887Z,77.20
2017-04-12T02:22:40.559Z,77.20
2017-04-12T02:23:39.555Z,77.00
2017-04-12T02:24:38.600Z,77.00
2017-04-12T02:25:37.628Z,76.90
2017-04-12T02:26:36.575Z,76.80
2017-04-12T02:27:35.655Z,76.60
2017-04-12T02:28:34.684Z,76.60
2017-04-12T02:29:33.615Z,76.00
2017-04-12T02:30:32.672Z,75.20
2017-04-12T02:31:32.011Z,75.20
2017-04-12T02:32:31.037Z,75.30
2017-04-12T02:33:29.983Z,75.60
2017-04-12T02:34:29.012Z,75.80
2017-04-12T02:35:27.984Z,75.60
2017-04-12T02:36:26.968Z,75.80
2017-04-12T02:37:25.983Z,75.70
2017-04-12T02:38:24.936Z,75.90
2017-04-12T02:39:23.869Z,76.20
2017-04-12T02:40:22.903Z,76.40
2017-04-12T02:41:21.911Z,76.50
2017-04-12T02:42:20.919Z,76.20
2017-04-12T02:43:19.885Z,76.30
2017-04-12T02:44:18.904Z,76.50
2017-04-12T02:45:17.923Z,76.40
2017-04-12T02:46:16.867Z,76.50
2017-04-12T02:47:15.825Z,76.40
2017-04-12T02:48:14.815Z,76.10
2017-04-12T02:49:13.775Z,76.00
2017-04-12T02:50:12.783Z,76.10
2017-04-12T02:51:11.740Z,76.00
2017-04-12T02:52:10.710Z,75.90
2017-04-12T02:53:09.675Z,76.10
2017-04-12T02:54:08.644Z,76.00
2017-04-12T02:55:07.619Z,76.20
2017-04-12T02:56:06.603Z,76.40
2017-04-12T02:57:05.596Z,76.40
2017-04-12T02:58:04.567Z,76.50
2017-04-12T02:59:03.509Z,76.90
2017-04-12T03:00:02.559Z,76.60
2017-04-12T03:01:01.535Z,76.60
2017-04-12T03:02:00.496Z,77.00
2017-04-12T03:02:59.532Z,77.30
2017-04-12T03:03:58.185Z,77.40
2017-04-12T03:04:57.244Z,76.80
2017-04-12T03:05:56.321Z,76.60
2017-04-12T03:06:55.042Z,76.60
2017-04-12T03:07:53.932Z,77.50
2017-04-12T03:08:52.951Z,77.80
2017-04-12T03:09:51.507Z,77.80
2017-04-12T03:10:50.513Z,78.10
2017-04-12T03:11:49.509Z,78.30
2017-04-12T03:12:48.091Z,78.30
2017-04-12T03:13:47.108Z,78.40
2017-04-12T03:14:46.072Z,78.30
2017-04-12T03:15:45.088Z,78.30
2017-04-12T03:16:44.038Z,78.60
2017-04-12T03:17:42.987Z,78.50
2017-04-12T03:18:41.963Z,77.70
2017-04-12T03:19:40.920Z,78.10
2017-04-12T03:20:40.284Z,78.20
2017-04-12T03:21:39.225Z,78.40
2017-04-12T03:22:38.144Z,78.00
2017-04-12T03:23:37.203Z,78.00
2017-04-12T03:24:36.148Z,78.10
2017-04-12T03:25:35.178Z,78.30
2017-04-12T03:26:34.155Z,78.30
2017-04-12T03:27:32.748Z,78.30
2017-04-12T03:28:31.704Z,78.80
2017-04-12T03:29:30.676Z,78.70
2017-04-12T03:30:29.684Z,78.50
2017-04-12T03:31:28.699Z,78.10
2017-04-12T03:32:27.699Z,78.20
2017-04-12T03:33:26.663Z,77.40
2017-04-12T03:34:25.647Z,77.40
2017-04-12T03:35:24.648Z,77.60
2017-04-12T03:36:23.624Z,77.60
2017-04-12T03:37:22.663Z,77.90
2017-04-12T03:38:21.575Z,77.40
2017-04-12T03:39:20.598Z,76.90
2017-04-12T03:40:19.560Z,77.40
2017-04-12T03:41:18.565Z,77.70
2017-04-12T03:42:17.591Z,77.50
2017-04-12T03:43:16.604Z,77.40
2017-04-12T03:44:15.148Z,77.40
2017-04-12T03:45:14.143Z,76.70
2017-04-12T03:46:13.118Z,76.60
2017-04-12T03:47:12.056Z,76.60
2017-04-12T03:48:11.071Z,76.70
2017-04-12T03:49:10.069Z,77.00
2017-04-12T03:50:08.986Z,77.00
2017-04-12T03:51:07.919Z,77.40
2017-04-12T03:52:06.876Z,77.50
2017-04-12T03:53:05.904Z,76.90
2017-04-12T03:54:04.905Z,76.50
2017-04-12T03:55:03.835Z,76.60
2017-04-12T03:56:02.840Z,76.80
2017-04-12T03:57:01.775Z,77.40
2017-04-12T03:58:00.713Z,77.40
2017-04-12T03:58:59.714Z,76.80
2017-04-12T03:59:58.643Z,76.70
2017-04-12T04:00:58.095Z,76.70
2017-04-12T04:01:57.419Z,76.80
2017-04-12T04:02:56.663Z,77.00
2017-04-12T04:03:55.627Z,76.90
2017-04-12T04:04:55.431Z,76.60
2017-04-12T04:05:54.393Z,76.70
2017-04-12T04:06:53.426Z,76.50
2017-04-12T04:07:52.368Z,76.80
2017-04-12T04:08:51.348Z,76.80
2017-04-12T04:09:50.325Z,77.30
2017-04-12T04:10:49.816Z,77.40
2017-04-12T04:11:48.769Z,77.70
2017-04-12T04:12:47.901Z,77.60
2017-04-12T04:13:46.872Z,77.40
2017-04-12T04:14:45.839Z,77.20
2017-04-12T04:15:44.794Z,77.30
2017-04-12T04:16:46.086Z,77.50
2017-04-12T04:17:45.030Z,77.60
2017-04-12T04:18:43.992Z,77.50
2017-04-12T04:19:42.984Z,78.00
2017-04-12T04:20:41.959Z,78.30
2017-04-12T04:21:40.925Z,77.90
2017-04-12T04:22:40.199Z,77.40
2017-04-12T04:23:39.175Z,77.20
2017-04-12T04:24:38.065Z,77.90
2017-04-12T04:25:37.043Z,78.50
2017-04-12T04:26:36.051Z,78.80
2017-04-12T04:27:35.073Z,78.70
2017-04-12T04:28:34.064Z,78.90
2017-04-12T04:29:33.044Z,79.00
2017-04-12T04:30:31.958Z,79.40
2017-04-12T04:31:30.936Z,79.30
2017-04-12T04:32:29.923Z,79.30
2017-04-12T04:33:28.866Z,79.20
2017-04-12T04:34:27.863Z,78.80
2017-04-12T04:35:27.210Z,77.70
2017-04-12T04:36:26.155Z,78.30
2017-04-12T04:37:25.087Z,78.90
2017-04-12T04:38:24.095Z,78.90
2017-04-12T04:39:23.034Z,77.70
2017-04-12T04:40:22.014Z,77.20
2017-04-12T04:41:21.075Z,77.00
2017-04-12T04:42:20.031Z,78.00
2017-04-12T04:43:19.383Z,77.20
2017-04-12T04:44:18.392Z,76.80
2017-04-12T04:45:17.315Z,76.40
2017-04-12T04:46:16.328Z,76.50
2017-04-12T04:47:15.320Z,76.60
2017-04-12T04:48:14.311Z,77.00
2017-04-12T04:49:13.320Z,77.50
2017-04-12T04:50:12.671Z,77.60
2017-04-12T04:51:11.648Z,77.60
2017-04-12T04:52:10.668Z,78.20
2017-04-12T04:53:09.663Z,78.30
2017-04-12T04:54:08.620Z,78.20
2017-04-12T04:55:07.580Z,78.30
2017-04-12T04:56:06.548Z,78.40
2017-04-12T04:57:05.516Z,78.30
2017-04-12T04:58:04.911Z,78.20
2017-04-12T04:59:03.919Z,78.20
2017-04-12T05:00:02.888Z,78.50
2017-04-12T05:01:01.860Z,78.60
2017-04-12T05:02:00.836Z,78.70
2017-04-12T05:02:59.828Z,78.00
2017-04-12T05:03:58.819Z,77.50
2017-04-12T05:04:57.731Z,77.50
2017-04-12T05:05:56.788Z,77.90
2017-04-12T05:06:55.765Z,77.70
2017-04-12T05:07:54.703Z,77.60
2017-04-12T05:08:53.666Z,77.40
2017-04-12T05:09:52.688Z,77.70
2017-04-12T05:10:51.623Z,77.60
2017-04-12T05:11:50.588Z,77.00
2017-04-12T05:12:49.608Z,76.70
2017-04-12T05:13:48.615Z,75.90
2017-04-12T05:14:47.575Z,75.90
2017-04-12T05:15:46.551Z,76.10
2017-04-12T05:16:45.943Z,76.30
2017-04-12T05:17:44.918Z,76.70
2017-04-12T05:18:43.949Z,76.80
2017-04-12T05:19:42.960Z,75.90
2017-04-12T05:20:41.891Z,75.70
2017-04-12T05:21:40.887Z,75.80
2017-04-12T05:22:39.812Z,76.00
2017-04-12T05:23:38.737Z,75.70
2017-04-12T05:24:37.747Z,75.70
2017-04-12T05:25:36.694Z,75.70
2017-04-12T05:26:35.619Z,75.90
2017-04-12T05:27:34.649Z,75.50
2017-04-12T05:28:33.579Z,75.30
2017-04-12T05:29:32.856Z,75.20
2017-04-12T05:30:31.826Z,75.00
2017-04-12T05:31:30.847Z,75.20
2017-04-12T05:32:29.783Z,75.30
2017-04-12T05:33:28.754Z,75.40
2017-04-12T05:34:27.891Z,75.20
2017-04-12T05:35:27.321Z,75.10
2017-04-12T05:36:26.202Z,75.10
2017-04-12T05:37:25.203Z,74.90
2017-04-12T05:38:24.172Z,75.00
2017-04-12T05:39:23.148Z,74.90
2017-04-12T05:40:22.127Z,75.10
2017-04-12T05:41:21.071Z,75.00
2017-04-12T05:42:20.070Z,74.70
2017-04-12T05:43:19.039Z,74.20
2017-04-12T05:44:18.014Z,74.90
2017-04-12T05:45:16.969Z,75.10
2017-04-12T05:46:15.955Z,74.90
2017-04-12T05:47:14.939Z,75.20
2017-04-12T05:48:13.853Z,74.90
2017-04-12T05:49:12.836Z,75.00
2017-04-12T05:50:11.776Z,74.80
2017-04-12T05:51:10.751Z,74.70
2017-04-12T05:52:09.698Z,74.50
2017-04-12T05:53:08.682Z,74.00
2017-04-12T05:54:07.647Z,73.80
2017-04-12T05:55:06.607Z,74.40
2017-04-12T05:56:05.559Z,74.40
2017-04-12T05:57:04.551Z,74.40
2017-04-12T05:58:03.496Z,73.60
2017-04-12T05:59:02.427Z,73.40
2017-04-12T06:00:01.347Z,73.50
2017-04-12T06:01:00.343Z,73.40
2017-04-12T06:01:59.376Z,73.10
2017-04-12T06:02:58.355Z,73.00
2017-04-12T06:03:57.312Z,72.40
2017-04-12T06:04:56.268Z,72.70
2017-04-12T06:05:55.318Z,72.80
2017-04-12T06:06:54.698Z,72.50
2017-04-12T06:07:53.618Z,72.60
2017-04-12T06:08:52.608Z,72.20
2017-04-12T06:09:51.587Z,72.50
2017-04-12T06:10:50.543Z,73.00
2017-04-12T06:11:49.077Z,73.00
2017-04-12T06:12:48.110Z,73.10
2017-04-12T06:13:47.029Z,72.90
2017-04-12T06:14:46.035Z,73.20
2017-04-12T06:15:45.029Z,73.40
2017-04-12T06:16:43.964Z,73.90
2017-04-12T06:17:42.923Z,73.50
2017-04-12T06:18:41.923Z,73.30
2017-04-12T06:19:40.894Z,72.70
2017-04-12T06:20:39.888Z,72.40
2017-04-12T06:21:38.855Z,71.70
2017-04-12T06:22:37.816Z,70.90
2017-04-12T06:23:36.847Z,71.00
2017-04-12T06:24:35.807Z,71.10
2017-04-12T06:25:34.792Z,71.60
2017-04-12T06:26:33.800Z,71.80
2017-04-12T06:27:32.664Z,71.60
2017-04-12T06:28:31.668Z,71.10
2017-04-12T06:29:30.627Z,71.30
2017-04-12T06:30:29.568Z,71.20
2017-04-12T06:31:28.536Z,71.50
2017-04-12T06:32:27.528Z,72.10
2017-04-12T06:33:26.516Z,71.60
2017-04-12T06:34:25.554Z,71.50
2017-04-12T06:35:24.567Z,70.50
2017-04-12T06:36:23.783Z,70.70
2017-04-12T06:37:22.722Z,70.90
2017-04-12T06:38:21.718Z,70.70
2017-04-12T06:39:20.744Z,70.70
2017-04-12T06:40:19.764Z,70.50
2017-04-12T06:41:18.717Z,70.50
2017-04-12T06:42:17.670Z,70.50
2017-04-12T06:43:16.625Z,70.40
2017-04-12T06:44:15.599Z,70.50
2017-04-12T06:45:14.604Z,70.30
2017-04-12T06:46:13.523Z,70.30
2017-04-12T06:47:12.580Z,70.50
2017-04-12T06:48:11.646Z,70.70
2017-04-12T06:49:10.672Z,71.20
2017-04-12T06:50:09.648Z,71.20
2017-04-12T06:51:08.611Z,71.20
2017-04-12T06:52:07.570Z,71.40
2017-04-12T06:53:06.792Z,71.50
2017-04-12T06:54:05.728Z,71.30
2017-04-12T06:55:04.739Z,71.00
2017-04-12T06:56:03.780Z,70.80
2017-04-12T06:57:02.772Z,70.40
2017-04-12T06:58:01.723Z,70.50
2017-04-12T06:59:00.671Z,70.60
2017-04-12T06:59:59.595Z,70.80
2017-04-12T07:00:58.555Z,70.90
2017-04-12T07:01:57.540Z,71.10
2017-04-12T07:02:58.665Z,71.20
2017-04-12T07:03:57.638Z,71.40
2017-04-12T07:04:56.610Z,70.70
2017-04-12T07:05:55.239Z,70.70
2017-04-12T07:06:54.215Z,70.30
2017-04-12T07:07:53.199Z,70.20
2017-04-12T07:08:52.179Z,69.70
2017-04-12T07:09:51.455Z,69.90
2017-04-12T07:10:50.487Z,70.20
2017-04-12T07:11:49.412Z,70.30
2017-04-12T07:12:48.423Z,70.10
2017-04-12T07:13:47.451Z,69.80
2017-04-12T07:14:46.549Z,70.20
2017-04-12T07:15:45.568Z,69.60
2017-04-12T07:16:44.583Z,69.80
2017-04-12T07:17:43.512Z,69.30
2017-04-12T07:18:42.520Z,68.80
2017-04-12T07:19:41.530Z,68.70
2017-04-12T07:20:40.475Z,68.90
2017-04-12T07:21:39.436Z,69.00
2017-04-12T07:22:38.398Z,68.80
2017-04-12T07:23:37.375Z,68.60
2017-04-12T07:24:36.319Z,69.10
2017-04-12T07:25:35.381Z,68.80
2017-04-12T07:26:34.309Z,68.00
2017-04-12T07:27:33.282Z,68.00
2017-04-12T07:28:32.260Z,68.00
2017-04-12T07:29:31.379Z,68.00
2017-04-12T07:30:30.382Z,67.00
2017-04-12T07:31:29.697Z,66.90
2017-04-12T07:32:28.660Z,66.90
2017-04-12T07:33:27.632Z,67.70
2017-04-12T07:34:26.671Z,67.40
2017-04-12T07:35:25.650Z,67.30
2017-04-12T07:36:24.630Z,68.10
2017-04-12T07:37:23.675Z,68.70
2017-04-12T07:38:23.395Z,68.30
2017-04-12T07:39:22.279Z,67.50
2017-04-12T07:40:21.271Z,67.60
2017-04-12T07:41:20.282Z,67.70
2017-04-12T07:42:19.259Z,68.40
2017-04-12T07:43:18.337Z,69.00
2017-04-12T07:44:17.324Z,68.90
2017-04-12T07:45:16.277Z,68.50
2017-04-12T07:46:15.269Z,68.50
2017-04-12T07:47:14.280Z,67.80
2017-04-12T07:48:13.280Z,67.80
2017-04-12T07:49:12.392Z,68.10
2017-04-12T07:50:11.394Z,67.50
2017-04-12T07:51:10.465Z,67.30
2017-04-12T07:52:09.478Z,66.80
2017-04-12T07:53:08.524Z,67.20
2017-04-12T07:54:07.583Z,67.30
2017-04-12T07:55:06.579Z,67.70
2017-04-12T07:56:05.240Z,67.70
2017-04-12T07:57:04.148Z,65.70
2017-04-12T07:58:03.227Z,65.50
2017-04-12T07:59:02.187Z,65.60
2017-04-12T08:00:01.164Z,65.30
2017-04-12T08:01:00.126Z,65.50
2017-04-12T08:01:59.123Z,64.50
2017-04-12T08:02:58.074Z,64.30
2017-04-12T08:03:57.039Z,64.20
2017-04-12T08:04:56.057Z,64.70
2017-04-12T08:05:54.977Z,64.70
2017-04-12T08:06:54.003Z,64.40
2017-04-12T08:07:52.922Z,64.00
2017-04-12T08:08:51.873Z,64.40
2017-04-12T08:09:50.863Z,65.40
2017-04-12T08:10:49.836Z,65.00
2017-04-12T08:11:48.837Z,62.80
2017-04-12T08:12:47.811Z,62.50
2017-04-12T08:13:46.718Z,62.20
2017-04-12T08:14:45.727Z,62.50
2017-04-12T08:15:44.660Z,62.30
2017-04-12T08:16:43.698Z,61.70
2017-04-12T08:17:42.719Z,61.10
2017-04-12T08:18:41.670Z,61.60
2017-04-12T08:19:40.626Z,62.10
2017-04-12T08:20:39.246Z,62.10
2017-04-12T08:21:38.211Z,62.70
2017-04-12T08:22:37.240Z,62.90
2017-04-12T08:23:36.164Z,62.00
2017-04-12T08:24:35.211Z,62.10
2017-04-12T08:25:34.195Z,61.40
2017-04-12T08:26:32.803Z,61.40
2017-04-12T08:27:31.784Z,61.50
2017-04-12T08:28:30.743Z,61.80
2017-04-12T08:29:29.687Z,61.20
2017-04-12T08:30:28.683Z,61.10
2017-04-12T08:31:27.651Z,60.90
2017-04-12T08:32:26.584Z,60.10
2017-04-12T08:33:25.599Z,60.20
2017-04-12T08:34:24.575Z,60.60
2017-04-12T08:35:23.571Z,60.70
2017-04-12T08:36:22.563Z,60.80
2017-04-12T08:37:21.525Z,60.20
2017-04-12T08:38:20.467Z,61.40
2017-04-12T08:39:19.468Z,61.00
2017-04-12T08:40:18.454Z,60.10
2017-04-12T08:41:17.423Z,60.30
2017-04-12T08:42:16.011Z,60.30
2017-04-12T08:43:14.583Z,60.10
2017-04-12T08:44:13.953Z,61.40
2017-04-12T08:45:12.928Z,61.50
2017-04-12T08:46:11.881Z,60.10
2017-04-12T08:47:10.895Z,59.90
2017-04-12T08:48:09.927Z,59.70
2017-04-12T08:49:08.826Z,59.70
2017-04-12T08:50:08.146Z,59.70
2017-04-12T08:51:06.711Z,59.70
2017-04-12T08:52:05.650Z,57.70
2017-04-12T08:53:04.619Z,58.20
2017-04-12T08:54:03.639Z,58.10
2017-04-12T08:55:02.147Z,58.10
2017-04-12T08:56:01.147Z,58.60
2017-04-12T08:57:00.080Z,59.50
2017-04-12T08:57:59.067Z,58.00
2017-04-12T08:58:58.067Z,58.00
2017-04-12T08:59:57.050Z,59.70
2017-04-12T09:00:56.008Z,57.90
2017-04-12T09:01:54.991Z,58.70
2017-04-12T09:02:53.954Z,58.80
2017-04-12T09:03:52.958Z,58.60
2017-04-12T09:04:51.902Z,58.10
2017-04-12T09:05:50.874Z,57.50
2017-04-12T09:06:49.894Z,57.80
2017-04-12T09:07:48.866Z,56.70
2017-04-12T09:08:47.795Z,56.80
2017-04-12T09:09:46.420Z,56.80
2017-04-12T09:10:45.481Z,57.20
2017-04-12T09:11:44.119Z,57.30
2017-04-12T09:12:43.186Z,57.00
2017-04-12T09:13:42.305Z,57.60
2017-04-12T09:14:41.325Z,57.50
2017-04-12T09:15:40.291Z,57.00
2017-04-12T09:16:39.341Z,57.70
2017-04-12T09:17:38.435Z,55.60
2017-04-12T09:18:37.404Z,55.40
2017-04-12T09:19:36.426Z,55.40
2017-04-12T09:20:35.400Z,55.20
2017-04-12T09:21:34.451Z,54.80
2017-04-12T09:22:33.415Z,55.50
2017-04-12T09:23:32.407Z,54.30
2017-04-12T09:24:31.354Z,54.90
2017-04-12T09:25:30.317Z,54.80
2017-04-12T09:26:29.269Z,54.80
2017-04-12T09:27:28.255Z,53.90
2017-04-12T09:28:27.260Z,53.90
2017-04-12T09:29:26.197Z,55.70
2017-04-12T09:30:25.184Z,55.70
2017-04-12T09:31:24.085Z,54.30
2017-04-12T09:32:23.118Z,53.80
2017-04-12T09:33:22.119Z,54.00
2017-04-12T09:34:21.068Z,54.70
2017-04-12T09:35:20.037Z,54.10
2017-04-12T09:36:19.038Z,53.40
2017-04-12T09:37:18.036Z,53.60
2017-04-12T09:38:17.413Z,54.60
2017-04-12T09:39:16.392Z,55.80
2017-04-12T09:40:15.375Z,53.60
2017-04-12T09:41:14.424Z,54.10
2017-04-12T09:42:13.523Z,53.10
2017-04-12T09:43:12.471Z,51.10
2017-04-12T09:44:11.464Z,51.00
2017-04-12T09:45:10.423Z,47.80
2017-04-12T09:46:09.371Z,48.20
2017-04-12T09:47:08.316Z,49.70
2017-04-12T09:48:07.372Z,49.40
2017-04-12T09:49:06.310Z,49.10
2017-04-12T09:50:05.238Z,50.00
2017-04-12T09:51:04.139Z,46.40
2017-04-12T09:52:03.139Z,47.00
2017-04-12T09:53:02.107Z,46.60
2017-04-12T09:54:01.471Z,46.90
2017-04-12T09:55:00.471Z,46.10
2017-04-12T09:55:59.408Z,46.30
2017-04-12T09:56:58.467Z,47.30
2017-04-12T09:57:57.499Z,48.70
2017-04-12T09:58:56.503Z,48.90
2017-04-12T09:59:55.435Z,48.60
2017-04-12T10:00:54.731Z,47.20
2017-04-12T10:01:53.719Z,47.70
2017-04-12T10:02:53.033Z,47.30
2017-04-12T10:03:51.936Z,46.40
2017-04-12T10:04:50.953Z,46.40
2017-04-12T10:05:49.922Z,45.30
2017-04-12T10:06:48.943Z,45.90
2017-04-12T10:07:47.923Z,45.00
2017-04-12T10:08:46.938Z,44.40
2017-04-12T10:09:45.479Z,44.40
2017-04-12T10:10:44.474Z,45.60
2017-04-12T10:11:43.476Z,45.00
2017-04-12T10:12:42.417Z,44.40
2017-04-12T10:13:41.455Z,44.60
2017-04-12T10:14:40.439Z,44.30
2017-04-12T10:15:39.734Z,42.90
2017-04-12T10:16:38.715Z,44.10
2017-04-12T10:17:37.880Z,42.70
2017-04-12T10:18:36.914Z,42.90
2017-04-12T10:19:35.898Z,43.90
2017-04-12T10:20:34.830Z,42.90
2017-04-12T10:21:33.813Z,43.30
2017-04-12T10:22:32.853Z,43.50
2017-04-12T10:23:31.932Z,43.40
2017-04-12T10:24:30.879Z,43.10
2017-04-12T10:25:31.891Z,43.30
2017-04-12T10:26:30.830Z,44.00
2017-04-12T10:27:29.794Z,44.00
2017-04-12T10:28:28.779Z,44.60
2017-04-12T10:29:27.752Z,44.70
2017-04-12T10:30:26.779Z,43.40
2017-04-12T10:31:25.739Z,44.70
2017-04-12T10:32:24.799Z,43.60
2017-04-12T10:33:23.727Z,43.10
2017-04-12T10:34:22.710Z,42.90
2017-04-12T10:35:21.722Z,43.30
2017-04-12T10:36:20.360Z,43.30
2017-04-12T10:37:19.343Z,43.70
2017-04-12T10:38:18.315Z,44.20
2017-04-12T10:39:17.283Z,46.70
2017-04-12T10:40:16.286Z,44.10
2017-04-12T10:41:15.284Z,43.20
2017-04-12T10:42:14.267Z,43.20
2017-04-12T10:43:13.203Z,43.10
2017-04-12T10:44:12.255Z,42.50
2017-04-12T10:45:11.566Z,43.50
2017-04-12T10:46:10.522Z,43.00
2017-04-12T10:47:09.528Z,44.00
2017-04-12T10:48:08.499Z,44.40
2017-04-12T10:49:07.478Z,43.00
2017-04-12T10:50:06.414Z,43.10
2017-04-12T10:51:05.023Z,43.10
2017-04-12T10:52:03.981Z,43.70
2017-04-12T10:53:03.003Z,42.80
2017-04-12T10:54:01.975Z,42.60
2017-04-12T10:55:00.935Z,42.70
2017-04-12T10:55:59.916Z,43.30
2017-04-12T10:56:58.971Z,42.90
2017-04-12T10:57:57.983Z,42.70
2017-04-12T10:58:56.599Z,42.70
2017-04-12T10:59:55.609Z,42.40
2017-04-12T11:00:54.534Z,44.10
2017-04-12T11:01:53.479Z,44.30
2017-04-12T11:02:52.464Z,43.30
2017-04-12T11:03:51.460Z,42.40
2017-04-12T11:04:50.408Z,41.90
2017-04-12T11:05:49.436Z,43.20
2017-04-12T11:06:48.390Z,43.30
2017-04-12T11:07:47.300Z,42.00
2017-04-12T11:08:46.320Z,43.50
2017-04-12T11:09:45.275Z,42.30
2017-04-12T11:10:44.247Z,42.80
2017-04-12T11:11:43.200Z,42.50
2017-04-12T11:12:42.188Z,42.70
2017-04-12T11:13:41.179Z,41.90
2017-04-12T11:14:40.146Z,41.90
2017-04-12T11:15:38.738Z,41.90
2017-04-12T11:16:37.743Z,41.60
2017-04-12T11:17:36.763Z,42.10
2017-04-12T11:18:35.739Z,41.50
2017-04-12T11:19:35.162Z,41.00
2017-04-12T11:20:34.095Z,42.20
2017-04-12T11:21:33.474Z,42.70
2017-04-12T11:22:32.476Z,42.20
2017-04-12T11:23:31.658Z,42.10
2017-04-12T11:24:30.652Z,42.30
2017-04-12T11:25:29.628Z,42.90
2017-04-12T11:26:28.240Z,42.90
2017-04-12T11:27:27.266Z,42.40
2017-04-12T11:28:26.303Z,43.30
2017-04-12T11:29:25.294Z,42.30
2017-04-12T11:30:24.263Z,41.30
2017-04-12T11:31:23.258Z,41.90
2017-04-12T11:32:22.198Z,41.80
2017-04-12T11:33:21.251Z,41.60
2017-04-12T11:34:20.227Z,42.30
2017-04-12T11:35:19.176Z,42.40
2017-04-12T11:36:18.195Z,42.00
2017-04-12T11:37:17.187Z,42.10
2017-04-12T11:38:16.176Z,42.40
2017-04-12T11:39:15.165Z,41.90
2017-04-12T11:40:14.276Z,42.40
2017-04-12T11:41:13.224Z,41.10
2017-04-12T11:42:12.216Z,41.30
2017-04-12T11:43:11.198Z,40.80
2017-04-12T11:44:10.158Z,41.10
2017-04-12T11:45:08.899Z,41.10
2017-04-12T11:46:07.903Z,41.40
2017-04-12T11:47:06.840Z,41.40
2017-04-12T11:48:05.927Z,40.90
2017-04-12T11:49:04.567Z,40.90
2017-04-12T11:50:03.572Z,43.80
2017-04-12T11:51:02.575Z,41.00
2017-04-12T11:52:01.587Z,40.70
2017-04-12T11:53:00.554Z,40.60
2017-04-12T11:53:59.503Z,41.50
2017-04-12T11:54:58.439Z,43.00
2017-04-12T11:55:57.378Z,43.60
2017-04-12T11:56:56.311Z,41.20
2017-04-12T11:57:55.343Z,41.10
2017-04-12T11:58:54.281Z,41.00
2017-04-12T11:59:53.315Z,40.60
2017-04-12T12:00:52.268Z,40.80
2017-04-12T12:01:51.222Z,40.50
2017-04-12T12:02:50.192Z,40.30
2017-04-12T12:03:49.123Z,41.10
2017-04-12T12:04:48.124Z,41.30
2017-04-12T12:05:47.106Z,41.00
2017-04-12T12:06:46.079Z,41.00
2017-04-12T12:07:45.008Z,40.50
2017-04-12T12:08:44.043Z,40.40
2017-04-12T12:09:43.063Z,40.10
2017-04-12T12:10:42.087Z,40.00
2017-04-12T12:11:41.058Z,41.70
2017-04-12T12:12:40.039Z,40.70
2017-04-12T12:13:38.991Z,40.90
2017-04-12T12:14:38.002Z,40.70
2017-04-12T12:15:37.022Z,40.20
2017-04-12T12:16:35.955Z,41.00
2017-04-12T12:17:35.189Z,40.80
2017-04-12T12:18:34.214Z,42.30
2017-04-12T12:19:33.160Z,43.00
2017-04-12T12:20:32.119Z,42.20
2017-04-12T12:21:31.135Z,42.60
2017-04-12T12:22:30.217Z,40.60
2017-04-12T12:23:29.183Z,40.30
2017-04-12T12:24:28.111Z,40.40
2017-04-12T12:25:27.130Z,41.20
2017-04-12T12:26:26.465Z,40.60
2017-04-12T12:27:25.447Z,40.90
2017-04-12T12:28:24.311Z,41.30
2017-04-12T12:29:23.300Z,41.30
2017-04-12T12:30:22.274Z,41.90
2017-04-12T12:31:21.259Z,42.10
2017-04-12T12:32:20.205Z,43.80
2017-04-12T12:33:19.222Z,43.40
2017-04-12T12:34:18.167Z,44.20
2017-04-12T12:35:17.122Z,43.40
2017-04-12T12:36:16.136Z,43.00
2017-04-12T12:37:15.147Z,43.40
2017-04-12T12:38:14.114Z,42.30
2017-04-12T12:39:13.040Z,42.10